RYR292Q LIRP-LIEE
Flight info
| Callsign | RYR292Q |
|---|---|
| Flight time | 1h 8m |
| Altitude | 31000 |
| Route | DOCME M729 ELB DCT NEMIT DCT BATOX DCT ALEDI M126 LEDRO |
| Aircraft | B738/M-SDE2E3FGHIRWXY/LB1 |
Departure
| Time | 2026-04-29 15:56 |
|---|---|
| Airport | Pisa International Airport (LIRP) |
Arrival
| Time | 2026-04-29 17:04 |
|---|---|
| Airport | Cagliari Elmas Airport (LIEE) |
| Time | Latitude | Longitude | Altitude | Speed | Heading |
|---|---|---|---|---|---|
| 2026-04-29 15:55 | 43.69169 | 10.40244 | 19 ft | 0 kts | 217° |
| 2026-04-29 15:55 | 43.68944 | 10.40012 | 18 ft | 84 kts | 216° |
| 2026-04-29 15:55 | 43.68254 | 10.39299 | 20 ft | 160 kts | 216° |
| 2026-04-29 15:56 | 43.67600 | 10.38615 | 304 ft | 190 kts | 219° |
| 2026-04-29 15:56 | 43.66262 | 10.37188 | 1248 ft | 178 kts | 212° |
| 2026-04-29 15:56 | 43.65086 | 10.36430 | 1917 ft | 185 kts | 202° |
| 2026-04-29 15:56 | 43.63985 | 10.35681 | 3074 ft | 178 kts | 203° |
| 2026-04-29 15:57 | 43.63172 | 10.35313 | 3329 ft | 195 kts | 193° |
| 2026-04-29 15:57 | 43.61820 | 10.34771 | 3678 ft | 222 kts | 197° |
| 2026-04-29 15:57 | 43.60291 | 10.34020 | 4003 ft | 238 kts | 198° |
| 2026-04-29 15:57 | 43.58716 | 10.33220 | 4644 ft | 242 kts | 199° |
| 2026-04-29 15:58 | 43.57078 | 10.32371 | 5027 ft | 261 kts | 199° |
| 2026-04-29 15:58 | 43.55350 | 10.31459 | 5729 ft | 268 kts | 200° |
| 2026-04-29 15:58 | 43.53612 | 10.30526 | 6681 ft | 268 kts | 201° |
| 2026-04-29 15:58 | 43.51886 | 10.29590 | 7547 ft | 271 kts | 202° |
| 2026-04-29 15:59 | 43.50111 | 10.28620 | 8305 ft | 277 kts | 202° |
| 2026-04-29 15:59 | 43.48312 | 10.27632 | 9168 ft | 279 kts | 203° |
| 2026-04-29 15:59 | 43.46502 | 10.26635 | 10010 ft | 281 kts | 204° |
| 2026-04-29 15:59 | 43.44652 | 10.25613 | 10542 ft | 296 kts | 204° |
| 2026-04-29 16:00 | 43.42658 | 10.24509 | 10720 ft | 321 kts | 204° |
| 2026-04-29 16:00 | 43.40534 | 10.23334 | 10888 ft | 344 kts | 204° |
| 2026-04-29 16:00 | 43.38245 | 10.22070 | 11156 ft | 362 kts | 204° |
| 2026-04-29 16:00 | 43.35878 | 10.20766 | 11741 ft | 369 kts | 204° |
| 2026-04-29 16:01 | 43.33486 | 10.19451 | 12449 ft | 372 kts | 204° |
| 2026-04-29 16:01 | 43.31066 | 10.18121 | 13163 ft | 375 kts | 204° |
| 2026-04-29 16:01 | 43.28654 | 10.16794 | 13812 ft | 379 kts | 204° |
| 2026-04-29 16:01 | 43.26185 | 10.15437 | 14416 ft | 384 kts | 204° |
| 2026-04-29 16:02 | 43.23688 | 10.14065 | 15017 ft | 388 kts | 204° |
| 2026-04-29 16:02 | 43.21162 | 10.12679 | 15623 ft | 391 kts | 204° |
| 2026-04-29 16:02 | 43.18614 | 10.11282 | 16199 ft | 396 kts | 204° |
| 2026-04-29 16:02 | 43.16046 | 10.10019 | 16740 ft | 402 kts | 195° |
| 2026-04-29 16:03 | 43.13225 | 10.09888 | 17273 ft | 412 kts | 172° |
| 2026-04-29 16:03 | 43.10488 | 10.11112 | 17864 ft | 419 kts | 153° |
| 2026-04-29 16:03 | 43.07953 | 10.13122 | 18414 ft | 423 kts | 151° |
| 2026-04-29 16:03 | 43.05384 | 10.15144 | 18859 ft | 428 kts | 152° |
| 2026-04-29 16:04 | 43.02780 | 10.17156 | 19349 ft | 431 kts | 152° |
| 2026-04-29 16:04 | 43.00152 | 10.19165 | 19856 ft | 433 kts | 152° |
| 2026-04-29 16:04 | 42.97536 | 10.21153 | 20345 ft | 436 kts | 152° |
| 2026-04-29 16:04 | 42.94870 | 10.23172 | 20832 ft | 439 kts | 152° |
| 2026-04-29 16:05 | 42.92191 | 10.25199 | 21290 ft | 442 kts | 152° |
| 2026-04-29 16:05 | 42.89485 | 10.27245 | 21742 ft | 444 kts | 152° |
| 2026-04-29 16:05 | 42.86762 | 10.29302 | 22207 ft | 447 kts | 152° |
| 2026-04-29 16:05 | 42.84033 | 10.31363 | 22645 ft | 450 kts | 152° |
| 2026-04-29 16:06 | 42.81287 | 10.33435 | 23073 ft | 453 kts | 152° |
| 2026-04-29 16:06 | 42.78556 | 10.35493 | 23507 ft | 455 kts | 152° |
| 2026-04-29 16:06 | 42.75691 | 10.37484 | 23859 ft | 457 kts | 160° |
| 2026-04-29 16:06 | 42.72622 | 10.38484 | 24208 ft | 454 kts | 178° |
| 2026-04-29 16:07 | 42.69519 | 10.38349 | 24618 ft | 450 kts | 192° |
| 2026-04-29 16:07 | 42.66493 | 10.37289 | 25000 ft | 449 kts | 199° |
| 2026-04-29 16:07 | 42.63492 | 10.36054 | 25324 ft | 452 kts | 199° |
| 2026-04-29 16:07 | 42.60461 | 10.34851 | 25638 ft | 454 kts | 198° |
| 2026-04-29 16:08 | 42.57404 | 10.33672 | 25965 ft | 456 kts | 198° |
| 2026-04-29 16:08 | 42.54341 | 10.32512 | 26282 ft | 458 kts | 198° |
| 2026-04-29 16:08 | 42.51257 | 10.31356 | 26601 ft | 460 kts | 198° |
| 2026-04-29 16:08 | 42.48195 | 10.30212 | 26904 ft | 462 kts | 198° |
| 2026-04-29 16:09 | 42.45086 | 10.29050 | 27193 ft | 464 kts | 198° |
| 2026-04-29 16:09 | 42.41964 | 10.27881 | 27477 ft | 466 kts | 198° |
| 2026-04-29 16:09 | 42.38825 | 10.26707 | 27752 ft | 468 kts | 198° |
| 2026-04-29 16:09 | 42.35648 | 10.25663 | 28021 ft | 471 kts | 192° |
| 2026-04-29 16:10 | 42.32410 | 10.25226 | 28357 ft | 474 kts | 185° |
| 2026-04-29 16:10 | 42.29119 | 10.25002 | 28800 ft | 472 kts | 185° |
| 2026-04-29 16:10 | 42.25852 | 10.24775 | 29250 ft | 470 kts | 185° |
| 2026-04-29 16:10 | 42.22577 | 10.24528 | 29656 ft | 469 kts | 186° |
| 2026-04-29 16:11 | 42.19307 | 10.24260 | 30025 ft | 468 kts | 186° |
| 2026-04-29 16:11 | 42.16088 | 10.23982 | 30364 ft | 467 kts | 186° |
| 2026-04-29 16:11 | 42.12844 | 10.23694 | 30728 ft | 466 kts | 186° |
| 2026-04-29 16:11 | 42.09610 | 10.23403 | 31028 ft | 466 kts | 186° |
| 2026-04-29 16:12 | 42.06354 | 10.23108 | 31002 ft | 470 kts | 186° |
| 2026-04-29 16:12 | 41.99837 | 10.22522 | 31005 ft | 466 kts | 186° |
| 2026-04-29 16:13 | 41.93415 | 10.21950 | 31024 ft | 466 kts | 186° |
| 2026-04-29 16:13 | 41.86863 | 10.21364 | 31027 ft | 476 kts | 186° |
| 2026-04-29 16:14 | 41.80253 | 10.20778 | 31009 ft | 475 kts | 186° |
| 2026-04-29 16:14 | 41.73704 | 10.20200 | 31008 ft | 473 kts | 186° |
| 2026-04-29 16:15 | 41.67155 | 10.19621 | 31010 ft | 472 kts | 186° |
| 2026-04-29 16:15 | 41.60584 | 10.19042 | 31007 ft | 472 kts | 186° |
| 2026-04-29 16:16 | 41.54059 | 10.18467 | 31005 ft | 471 kts | 186° |
| 2026-04-29 16:16 | 41.47496 | 10.17890 | 31006 ft | 471 kts | 186° |
| 2026-04-29 16:17 | 41.40970 | 10.17318 | 31003 ft | 471 kts | 185° |
| 2026-04-29 16:17 | 41.34424 | 10.16745 | 31001 ft | 471 kts | 185° |
| 2026-04-29 16:18 | 41.27900 | 10.16176 | 30995 ft | 471 kts | 185° |
| 2026-04-29 16:18 | 41.21346 | 10.15604 | 30998 ft | 471 kts | 185° |
| 2026-04-29 16:19 | 41.14789 | 10.14963 | 30994 ft | 471 kts | 186° |
| 2026-04-29 16:19 | 41.08290 | 10.14274 | 30994 ft | 470 kts | 186° |
| 2026-04-29 16:20 | 41.01745 | 10.13586 | 30989 ft | 470 kts | 186° |
| 2026-04-29 16:20 | 40.95268 | 10.12916 | 30991 ft | 469 kts | 186° |
| 2026-04-29 16:21 | 40.88745 | 10.12247 | 30988 ft | 469 kts | 186° |
| 2026-04-29 16:21 | 40.82233 | 10.11581 | 30985 ft | 468 kts | 186° |
| 2026-04-29 16:22 | 40.75758 | 10.10920 | 30984 ft | 468 kts | 186° |
| 2026-04-29 16:22 | 40.69296 | 10.10261 | 30986 ft | 467 kts | 186° |
| 2026-04-29 16:23 | 40.62810 | 10.09600 | 30983 ft | 467 kts | 186° |
| 2026-04-29 16:23 | 40.56309 | 10.08940 | 30990 ft | 467 kts | 186° |
| 2026-04-29 16:24 | 40.49858 | 10.08286 | 30990 ft | 467 kts | 186° |
| 2026-04-29 16:24 | 40.43363 | 10.07629 | 30987 ft | 466 kts | 186° |
| 2026-04-29 16:25 | 40.40798 | 10.07370 | 30975 ft | 461 kts | 186° |
| 2026-04-29 16:43 | 40.37817 | 10.07055 | 30988 ft | 461 kts | 186° |
| 2026-04-29 16:43 | 40.32501 | 10.06501 | 30988 ft | 460 kts | 186° |
| 2026-04-29 16:44 | 40.25071 | 10.05762 | 30988 ft | 459 kts | 186° |
| 2026-04-29 16:44 | 40.19823 | 10.05244 | 30951 ft | 441 kts | 186° |
| 2026-04-29 16:45 | 40.16786 | 10.04945 | 30648 ft | 433 kts | 186° |
| 2026-04-29 16:45 | 40.13782 | 10.04646 | 29874 ft | 435 kts | 186° |
| 2026-04-29 16:45 | 40.10743 | 10.04341 | 29135 ft | 435 kts | 186° |
| 2026-04-29 16:45 | 40.07697 | 10.04035 | 28553 ft | 446 kts | 186° |
| 2026-04-29 16:46 | 40.04547 | 10.03718 | 27983 ft | 461 kts | 186° |
| 2026-04-29 16:46 | 40.01319 | 10.03394 | 27405 ft | 468 kts | 185° |
| 2026-04-29 16:46 | 39.98099 | 10.03074 | 26934 ft | 469 kts | 185° |
| 2026-04-29 16:46 | 39.94844 | 10.02751 | 26585 ft | 469 kts | 185° |
| 2026-04-29 16:47 | 39.91583 | 10.02428 | 26229 ft | 469 kts | 185° |
| 2026-04-29 16:47 | 39.88329 | 10.02105 | 25881 ft | 469 kts | 185° |
| 2026-04-29 16:47 | 39.85060 | 10.01781 | 25538 ft | 470 kts | 185° |
| 2026-04-29 16:47 | 39.81834 | 10.01461 | 25202 ft | 469 kts | 185° |
| 2026-04-29 16:48 | 39.78564 | 10.01137 | 24865 ft | 469 kts | 185° |
| 2026-04-29 16:48 | 39.75308 | 10.00815 | 24536 ft | 467 kts | 185° |
| 2026-04-29 16:48 | 39.72068 | 10.00494 | 24212 ft | 465 kts | 185° |
| 2026-04-29 16:48 | 39.68882 | 10.00179 | 23947 ft | 461 kts | 185° |
| 2026-04-29 16:49 | 39.65689 | 9.99856 | 23914 ft | 461 kts | 186° |
| 2026-04-29 16:49 | 39.62534 | 9.99136 | 23723 ft | 459 kts | 195° |
| 2026-04-29 16:49 | 39.59531 | 9.97660 | 22897 ft | 456 kts | 207° |
| 2026-04-29 16:49 | 39.56847 | 9.95554 | 22112 ft | 448 kts | 218° |
| 2026-04-29 16:50 | 39.54423 | 9.93043 | 21388 ft | 442 kts | 219° |
| 2026-04-29 16:50 | 39.52047 | 9.90630 | 20664 ft | 438 kts | 218° |
| 2026-04-29 16:50 | 39.49628 | 9.88239 | 19947 ft | 433 kts | 217° |
| 2026-04-29 16:50 | 39.47258 | 9.85927 | 19233 ft | 418 kts | 217° |
| 2026-04-29 16:51 | 39.44966 | 9.83701 | 18541 ft | 406 kts | 217° |
| 2026-04-29 16:51 | 39.42730 | 9.81530 | 17810 ft | 395 kts | 217° |
| 2026-04-29 16:51 | 39.40583 | 9.79443 | 17062 ft | 386 kts | 218° |
| 2026-04-29 16:51 | 39.38458 | 9.77377 | 16322 ft | 378 kts | 218° |
| 2026-04-29 16:52 | 39.36377 | 9.75353 | 15592 ft | 370 kts | 218° |
| 2026-04-29 16:52 | 39.34330 | 9.73361 | 14889 ft | 364 kts | 218° |
| 2026-04-29 16:52 | 39.32322 | 9.71410 | 14199 ft | 358 kts | 218° |
| 2026-04-29 16:52 | 39.30344 | 9.69489 | 13488 ft | 353 kts | 218° |
| 2026-04-29 16:53 | 39.28409 | 9.67613 | 12739 ft | 348 kts | 218° |
| 2026-04-29 16:53 | 39.26483 | 9.65736 | 12012 ft | 344 kts | 219° |
| 2026-04-29 16:53 | 39.24850 | 9.63528 | 11261 ft | 339 kts | 239° |
| 2026-04-29 16:53 | 39.24009 | 9.60733 | 10567 ft | 333 kts | 261° |
| 2026-04-29 16:54 | 39.24069 | 9.57776 | 9851 ft | 330 kts | 283° |
| 2026-04-29 16:54 | 39.24999 | 9.55054 | 8852 ft | 337 kts | 307° |
| 2026-04-29 16:54 | 39.26629 | 9.53023 | 8548 ft | 322 kts | 321° |
| 2026-04-29 16:54 | 39.28375 | 9.51313 | 8246 ft | 308 kts | 322° |
| 2026-04-29 16:55 | 39.30076 | 9.49712 | 7948 ft | 296 kts | 323° |
| 2026-04-29 16:55 | 39.31718 | 9.48177 | 7566 ft | 288 kts | 322° |
| 2026-04-29 16:55 | 39.33098 | 9.46361 | 7118 ft | 282 kts | 300° |
| 2026-04-29 16:55 | 39.33986 | 9.44142 | 6744 ft | 276 kts | 294° |
| 2026-04-29 16:56 | 39.34781 | 9.41895 | 6324 ft | 273 kts | 293° |
| 2026-04-29 16:56 | 39.35550 | 9.39680 | 5919 ft | 272 kts | 293° |
| 2026-04-29 16:56 | 39.36265 | 9.37422 | 5465 ft | 270 kts | 283° |
| 2026-04-29 16:56 | 39.36290 | 9.35028 | 5054 ft | 266 kts | 259° |
| 2026-04-29 16:57 | 39.35981 | 9.32680 | 4645 ft | 265 kts | 261° |
| 2026-04-29 16:57 | 39.35730 | 9.30348 | 4231 ft | 265 kts | 262° |
| 2026-04-29 16:57 | 39.35491 | 9.27975 | 3803 ft | 266 kts | 261° |
| 2026-04-29 16:57 | 39.35257 | 9.25625 | 3370 ft | 257 kts | 261° |
| 2026-04-29 16:58 | 39.35037 | 9.23368 | 2947 ft | 249 kts | 262° |
| 2026-04-29 16:58 | 39.34890 | 9.21176 | 2481 ft | 241 kts | 273° |
| 2026-04-29 16:58 | 39.35377 | 9.19176 | 2215 ft | 226 kts | 300° |
| 2026-04-29 16:58 | 39.36139 | 9.17509 | 1939 ft | 209 kts | 300° |
| 2026-04-29 16:59 | 39.36540 | 9.15837 | 1754 ft | 185 kts | 260° |
| 2026-04-29 16:59 | 39.36100 | 9.14435 | 1780 ft | 159 kts | 242° |
| 2026-04-29 16:59 | 39.35785 | 9.13088 | 1777 ft | 163 kts | 257° |
| 2026-04-29 16:59 | 39.35496 | 9.11586 | 1751 ft | 173 kts | 252° |
| 2026-04-29 17:00 | 39.35172 | 9.10111 | 1742 ft | 169 kts | 253° |
| 2026-04-29 17:00 | 39.34867 | 9.08686 | 1726 ft | 165 kts | 253° |
| 2026-04-29 17:00 | 39.34564 | 9.07242 | 1741 ft | 167 kts | 252° |
| 2026-04-29 17:00 | 39.34266 | 9.05802 | 1777 ft | 165 kts | 254° |
| 2026-04-29 17:01 | 39.33974 | 9.04378 | 1742 ft | 162 kts | 254° |
| 2026-04-29 17:01 | 39.33682 | 9.02954 | 1740 ft | 165 kts | 254° |
| 2026-04-29 17:01 | 39.33331 | 9.01580 | 1544 ft | 160 kts | 239° |
| 2026-04-29 17:01 | 39.32663 | 9.00506 | 1474 ft | 151 kts | 215° |
| 2026-04-29 17:02 | 39.31721 | 8.99917 | 1311 ft | 151 kts | 192° |
| 2026-04-29 17:02 | 39.30694 | 8.99811 | 1088 ft | 146 kts | 171° |
| 2026-04-29 17:02 | 39.29758 | 9.00213 | 858 ft | 140 kts | 150° |
| 2026-04-29 17:02 | 39.29009 | 9.00963 | 755 ft | 138 kts | 137° |
| 2026-04-29 17:03 | 39.28287 | 9.01811 | 641 ft | 140 kts | 139° |
| 2026-04-29 17:03 | 39.27553 | 9.02660 | 435 ft | 141 kts | 139° |
| 2026-04-29 17:03 | 39.26834 | 9.03499 | 231 ft | 141 kts | 139° |
| 2026-04-29 17:03 | 39.26101 | 9.04331 | 62 ft | 140 kts | 137° |
| 2026-04-29 17:04 | 39.25415 | 9.05120 | 17 ft | 117 kts | 138° |
| 2026-04-29 17:04 | 39.24921 | 9.05689 | 17 ft | 73 kts | 138° |
| 2026-04-29 17:04 | 39.24681 | 9.06012 | 15 ft | 25 kts | 94° |
| 2026-04-29 17:04 | 39.24756 | 9.06148 | 15 ft | 13 kts | 351° |
| 2026-04-29 17:05 | 39.24826 | 9.06077 | 15 ft | 13 kts | 319° |
| 2026-04-29 17:05 | 39.24903 | 9.05986 | 16 ft | 17 kts | 317° |
| 2026-04-29 17:05 | 39.25001 | 9.05874 | 16 ft | 21 kts | 318° |
| 2026-04-29 17:05 | 39.25111 | 9.05780 | 16 ft | 13 kts | 14° |
| 2026-04-29 17:06 | 39.25179 | 9.05846 | 16 ft | 13 kts | 355° |
| 2026-04-29 17:06 | 39.25253 | 9.05769 | 16 ft | 15 kts | 320° |
| 2026-04-29 17:06 | 39.25332 | 9.05698 | 16 ft | 10 kts | 13° |
| 2026-04-29 17:06 | 39.25384 | 9.05761 | 16 ft | 10 kts | 66° |
| 2026-04-29 17:07 | 39.25366 | 9.05814 | 17 ft | 0 kts | 136° |
| 2026-04-29 17:07 | 39.25354 | 9.05828 | 16 ft | 0 kts | 140° |